sensor_id;sensor_type;location;lat;lon;timestamp;pressure;altitude;pressure_sealevel;temperature;humidity
63111;BME280;49201;53.426;10.300;2023-02-15T00:01:29;103118.50;;;5.16;100.00
63111;BME280;49201;53.426;10.300;2023-02-15T00:03:55;103119.88;;;5.22;100.00
63111;BME280;49201;53.426;10.300;2023-02-15T00:06:21;103121.50;;;5.22;100.00
63111;BME280;49201;53.426;10.300;2023-02-15T00:08:46;103124.06;;;5.22;100.00
63111;BME280;49201;53.426;10.300;2023-02-15T00:11:15;103124.06;;;5.22;100.00
63111;BME280;49201;53.426;10.300;2023-02-15T00:13:42;103119.28;;;5.15;100.00
63111;BME280;49201;53.426;10.300;2023-02-15T00:16:09;103116.97;;;5.18;100.00
63111;BME280;49201;53.426;10.300;2023-02-15T00:18:36;103119.94;;;5.12;100.00
63111;BME280;49201;53.426;10.300;2023-02-15T00:21:07;103111.53;;;5.13;100.00
63111;BME280;49201;53.426;10.300;2023-02-15T00:23:34;103110.69;;;5.03;100.00
63111;BME280;49201;53.426;10.300;2023-02-15T00:26:12;103107.41;;;5.04;100.00
63111;BME280;49201;53.426;10.300;2023-02-15T00:28:40;103109.28;;;5.06;100.00
63111;BME280;49201;53.426;10.300;2023-02-15T00:31:08;103107.19;;;5.01;100.00
63111;BME280;49201;53.426;10.300;2023-02-15T00:33:35;103109.16;;;5.05;100.00
63111;BME280;49201;53.426;10.300;2023-02-15T00:36:01;103115.00;;;5.04;100.00
63111;BME280;49201;53.426;10.300;2023-02-15T00:38:27;103109.72;;;5.01;100.00
63111;BME280;49201;53.426;10.300;2023-02-15T00:40:55;103102.44;;;5.05;100.00
63111;BME280;49201;53.426;10.300;2023-02-15T00:43:21;103108.94;;;5.02;100.00
63111;BME280;49201;53.426;10.300;2023-02-15T00:45:47;103105.03;;;4.95;100.00
63111;BME280;49201;53.426;10.300;2023-02-15T00:48:13;103100.66;;;4.83;100.00
63111;BME280;49201;53.426;10.300;2023-02-15T00:50:38;103100.72;;;4.94;100.00
63111;BME280;49201;53.426;10.300;2023-02-15T00:53:04;103091.31;;;4.93;100.00
63111;BME280;49201;53.426;10.300;2023-02-15T00:55:29;103094.09;;;4.96;100.00
63111;BME280;49201;53.426;10.300;2023-02-15T00:57:55;103094.75;;;4.94;100.00
63111;BME280;49201;53.426;10.300;2023-02-15T01:00:21;103084.47;;;4.92;100.00
63111;BME280;49201;53.426;10.300;2023-02-15T01:02:46;103088.78;;;4.93;100.00
63111;BME280;49201;53.426;10.300;2023-02-15T01:05:13;103075.38;;;4.84;100.00
63111;BME280;49201;53.426;10.300;2023-02-15T01:07:38;103082.66;;;4.80;100.00
63111;BME280;49201;53.426;10.300;2023-02-15T01:10:06;103078.34;;;4.79;100.00
63111;BME280;49201;53.426;10.300;2023-02-15T01:12:32;103077.25;;;4.87;100.00
63111;BME280;49201;53.426;10.300;2023-02-15T01:14:57;103073.63;;;4.83;100.00
63111;BME280;49201;53.426;10.300;2023-02-15T01:17:24;103070.31;;;4.84;100.00
63111;BME280;49201;53.426;10.300;2023-02-15T01:19:49;103072.09;;;4.85;100.00
63111;BME280;49201;53.426;10.300;2023-02-15T01:22:18;103071.19;;;4.85;100.00
63111;BME280;49201;53.426;10.300;2023-02-15T01:24:44;103063.47;;;4.83;100.00
63111;BME280;49201;53.426;10.300;2023-02-15T01:27:10;103063.72;;;4.86;100.00
63111;BME280;49201;53.426;10.300;2023-02-15T01:29:35;103052.44;;;4.83;100.00
63111;BME280;49201;53.426;10.300;2023-02-15T01:32:01;103058.03;;;4.79;100.00
63111;BME280;49201;53.426;10.300;2023-02-15T01:34:29;103053.50;;;4.75;100.00
63111;BME280;49201;53.426;10.300;2023-02-15T01:36:56;103053.03;;;4.69;100.00
63111;BME280;49201;53.426;10.300;2023-02-15T01:39:21;103052.47;;;4.73;100.00
63111;BME280;49201;53.426;10.300;2023-02-15T01:41:47;103050.50;;;4.69;100.00
63111;BME280;49201;53.426;10.300;2023-02-15T01:47:43;103046.94;;;4.67;100.00
63111;BME280;49201;53.426;10.300;2023-02-15T01:50:16;103042.63;;;4.66;100.00
63111;BME280;49201;53.426;10.300;2023-02-15T01:53:08;103043.63;;;4.68;100.00
63111;BME280;49201;53.426;10.300;2023-02-15T01:55:40;103048.22;;;4.62;100.00
63111;BME280;49201;53.426;10.300;2023-02-15T01:58:07;103037.81;;;4.59;100.00
63111;BME280;49201;53.426;10.300;2023-02-15T02:00:34;103032.88;;;4.60;100.00
63111;BME280;49201;53.426;10.300;2023-02-15T02:03:01;103037.81;;;4.59;100.00
63111;BME280;49201;53.426;10.300;2023-02-15T02:05:29;103032.41;;;4.54;100.00
63111;BME280;49201;53.426;10.300;2023-02-15T02:07:57;103033.69;;;4.49;100.00
63111;BME280;49201;53.426;10.300;2023-02-15T02:10:24;103029.88;;;4.54;100.00
63111;BME280;49201;53.426;10.300;2023-02-15T02:12:52;103033.69;;;4.49;100.00
63111;BME280;49201;53.426;10.300;2023-02-15T02:15:25;103035.59;;;4.52;100.00
63111;BME280;49201;53.426;10.300;2023-02-15T02:27:15;103018.41;;;4.38;100.00
63111;BME280;49201;53.426;10.300;2023-02-15T02:35:40;103009.31;;;4.30;100.00
63111;BME280;49201;53.426;10.300;2023-02-15T02:44:02;103010.91;;;4.18;100.00
63111;BME280;49201;53.426;10.300;2023-02-15T02:46:48;103002.25;;;4.16;100.00
63111;BME280;49201;53.426;10.300;2023-02-15T02:49:15;102999.59;;;4.14;100.00
63111;BME280;49201;53.426;10.300;2023-02-15T02:51:41;102996.84;;;4.11;100.00
63111;BME280;49201;53.426;10.300;2023-02-15T02:54:08;102987.44;;;4.10;100.00
63111;BME280;49201;53.426;10.300;2023-02-15T02:56:40;102983.16;;;4.09;100.00
63111;BME280;49201;53.426;10.300;2023-02-15T02:59:17;102988.00;;;4.06;100.00
63111;BME280;49201;53.426;10.300;2023-02-15T03:01:54;102981.00;;;4.04;100.00
63111;BME280;49201;53.426;10.300;2023-02-15T03:04:24;102981.63;;;4.01;100.00
63111;BME280;49201;53.426;10.300;2023-02-15T03:06:57;102984.22;;;3.91;100.00
63111;BME280;49201;53.426;10.300;2023-02-15T03:09:36;102987.69;;;3.82;100.00
63111;BME280;49201;53.426;10.300;2023-02-15T03:12:15;102983.44;;;3.92;100.00
63111;BME280;49201;53.426;10.300;2023-02-15T03:14:46;102986.88;;;3.93;100.00
63111;BME280;49201;53.426;10.300;2023-02-15T03:17:17;102984.72;;;3.87;100.00
63111;BME280;49201;53.426;10.300;2023-02-15T03:19:46;102973.84;;;3.88;100.00
63111;BME280;49201;53.426;10.300;2023-02-15T03:22:20;102970.81;;;3.82;100.00
63111;BME280;49201;53.426;10.300;2023-02-15T03:27:38;102971.09;;;3.75;100.00
63111;BME280;49201;53.426;10.300;2023-02-15T03:30:06;102960.56;;;3.71;100.00
63111;BME280;49201;53.426;10.300;2023-02-15T03:32:34;102955.81;;;3.54;100.00
63111;BME280;49201;53.426;10.300;2023-02-15T03:35:03;102946.81;;;3.57;100.00
63111;BME280;49201;53.426;10.300;2023-02-15T03:45:57;102941.91;;;3.49;100.00
63111;BME280;49201;53.426;10.300;2023-02-15T03:48:53;102935.81;;;3.47;100.00
63111;BME280;49201;53.426;10.300;2023-02-15T03:51:22;102945.69;;;3.44;100.00
63111;BME280;49201;53.426;10.300;2023-02-15T03:54:01;102949.25;;;3.36;100.00
63111;BME280;49201;53.426;10.300;2023-02-15T03:56:27;102949.47;;;3.39;100.00
63111;BME280;49201;53.426;10.300;2023-02-15T03:58:52;102950.88;;;3.35;100.00
63111;BME280;49201;53.426;10.300;2023-02-15T04:01:39;102955.69;;;3.32;100.00
63111;BME280;49201;53.426;10.300;2023-02-15T04:04:34;102944.72;;;3.22;100.00
63111;BME280;49201;53.426;10.300;2023-02-15T04:07:00;102950.91;;;3.15;100.00
63111;BME280;49201;53.426;10.300;2023-02-15T04:09:26;102944.59;;;3.20;100.00
63111;BME280;49201;53.426;10.300;2023-02-15T04:12:24;102953.56;;;3.17;100.00
63111;BME280;49201;53.426;10.300;2023-02-15T04:14:49;102950.91;;;3.15;100.00
63111;BME280;49201;53.426;10.300;2023-02-15T04:17:36;102950.66;;;2.92;100.00
63111;BME280;49201;53.426;10.300;2023-02-15T04:20:01;102947.34;;;3.03;100.00
63111;BME280;49201;53.426;10.300;2023-02-15T04:22:45;102947.13;;;3.10;100.00
63111;BME280;49201;53.426;10.300;2023-02-15T04:25:29;102938.28;;;3.05;100.00
63111;BME280;49201;53.426;10.300;2023-02-15T04:27:54;102947.34;;;3.03;100.00
63111;BME280;49201;53.426;10.300;2023-02-15T04:30:22;102932.81;;;3.01;100.00
63111;BME280;49201;53.426;10.300;2023-02-15T04:32:48;102927.38;;;2.96;100.00
63111;BME280;49201;53.426;10.300;2023-02-15T04:35:14;102925.59;;;2.95;100.00
63111;BME280;49201;53.426;10.300;2023-02-15T04:37:41;102926.22;;;2.83;100.00
63111;BME280;49201;53.426;10.300;2023-02-15T04:40:09;102929.38;;;2.80;100.00
63111;BME280;49201;53.426;10.300;2023-02-15T04:42:35;102926.09;;;2.81;100.00
63111;BME280;49201;53.426;10.300;2023-02-15T04:45:00;102919.53;;;2.83;100.00
63111;BME280;49201;53.426;10.300;2023-02-15T04:47:26;102919.41;;;2.82;100.00
63111;BME280;49201;53.426;10.300;2023-02-15T04:49:51;102912.56;;;2.81;100.00
63111;BME280;49201;53.426;10.300;2023-02-15T04:52:17;102921.53;;;2.67;100.00
63111;BME280;49201;53.426;10.300;2023-02-15T04:54:43;102921.03;;;2.71;100.00
63111;BME280;49201;53.426;10.300;2023-02-15T04:57:09;102916.88;;;2.72;100.00
63111;BME280;49201;53.426;10.300;2023-02-15T04:59:34;102916.09;;;2.63;100.00
63111;BME280;49201;53.426;10.300;2023-02-15T05:02:00;102919.53;;;2.63;100.00
63111;BME280;49201;53.426;10.300;2023-02-15T05:04:25;102902.69;;;2.64;100.00
63111;BME280;49201;53.426;10.300;2023-02-15T05:06:51;102904.56;;;2.56;100.00
63111;BME280;49201;53.426;10.300;2023-02-15T05:09:16;102898.00;;;2.58;100.00
63111;BME280;49201;53.426;10.300;2023-02-15T05:11:42;102902.69;;;2.64;100.00
63111;BME280;49201;53.426;10.300;2023-02-15T05:14:07;102894.59;;;2.68;100.00
63111;BME280;49201;53.426;10.300;2023-02-15T05:16:33;102894.97;;;2.52;100.00
63111;BME280;49201;53.426;10.300;2023-02-15T05:18:58;102901.00;;;2.44;100.00
63111;BME280;49201;53.426;10.300;2023-02-15T05:21:24;102902.41;;;2.51;100.00
63111;BME280;49201;53.426;10.300;2023-02-15T05:23:50;102897.75;;;2.45;100.00
63111;BME280;49201;53.426;10.300;2023-02-15T05:26:21;102909.63;;;2.46;100.00
63111;BME280;49201;53.426;10.300;2023-02-15T05:29:06;102903.19;;;2.50;100.00
63111;BME280;49201;53.426;10.300;2023-02-15T05:31:32;102900.00;;;2.32;100.00
63111;BME280;49201;53.426;10.300;2023-02-15T05:33:57;102904.16;;;2.42;100.00
63111;BME280;49201;53.426;10.300;2023-02-15T05:36:23;102890.91;;;2.44;100.00
63111;BME280;49201;53.426;10.300;2023-02-15T05:38:48;102891.91;;;2.36;100.00
63111;BME280;49201;53.426;10.300;2023-02-15T05:41:14;102879.66;;;2.41;100.00
63111;BME280;49201;53.426;10.300;2023-02-15T05:43:39;102870.44;;;2.41;100.00
63111;BME280;49201;53.426;10.300;2023-02-15T05:46:05;102884.53;;;2.19;100.00
63111;BME280;49201;53.426;10.300;2023-02-15T05:48:31;102885.44;;;2.20;100.00
63111;BME280;49201;53.426;10.300;2023-02-15T05:51:04;102883.91;;;2.22;100.00
63111;BME280;49201;53.426;10.300;2023-02-15T05:53:32;102881.72;;;2.06;100.00
63111;BME280;49201;53.426;10.300;2023-02-15T05:55:58;102880.75;;;2.24;100.00
63111;BME280;49201;53.426;10.300;2023-02-15T05:58:29;102874.16;;;2.16;100.00
63111;BME280;49201;53.426;10.300;2023-02-15T06:00:55;102879.44;;;1.99;100.00
63111;BME280;49201;53.426;10.300;2023-02-15T06:03:21;102889.06;;;2.13;100.00
63111;BME280;49201;53.426;10.300;2023-02-15T06:05:47;102891.59;;;2.13;100.00
63111;BME280;49201;53.426;10.300;2023-02-15T06:08:12;102895.28;;;2.17;100.00
63111;BME280;49201;53.426;10.300;2023-02-15T06:10:38;102888.69;;;2.19;100.00
63111;BME280;49201;53.426;10.300;2023-02-15T06:13:05;102887.38;;;2.04;100.00
63111;BME280;49201;53.426;10.300;2023-02-15T06:15:31;102877.69;;;2.08;100.00
63111;BME280;49201;53.426;10.300;2023-02-15T06:17:56;102886.78;;;2.06;100.00
63111;BME280;49201;53.426;10.300;2023-02-15T06:20:21;102884.75;;;2.12;100.00
63111;BME280;49201;53.426;10.300;2023-02-15T06:22:47;102886.91;;;2.08;100.00
63111;BME280;49201;53.426;10.300;2023-02-15T06:25:12;102890.38;;;1.90;100.00
63111;BME280;49201;53.426;10.300;2023-02-15T06:27:41;102890.16;;;1.97;100.00
63111;BME280;49201;53.426;10.300;2023-02-15T06:30:08;102886.56;;;1.85;100.00
63111;BME280;49201;53.426;10.300;2023-02-15T06:32:34;102889.25;;;1.96;100.00
63111;BME280;49201;53.426;10.300;2023-02-15T06:34:59;102876.84;;;1.89;100.00
63111;BME280;49201;53.426;10.300;2023-02-15T06:37:25;102873.50;;;1.70;100.00
63111;BME280;49201;53.426;10.300;2023-02-15T06:39:50;102872.25;;;1.75;100.00
63111;BME280;49201;53.426;10.300;2023-02-15T06:42:16;102866.84;;;1.81;100.00
63111;BME280;49201;53.426;10.300;2023-02-15T06:44:43;102862.06;;;1.84;100.00
63111;BME280;49201;53.426;10.300;2023-02-15T06:47:09;102858.28;;;1.79;100.00
63111;BME280;49201;53.426;10.300;2023-02-15T06:49:36;102871.03;;;1.80;100.00
63111;BME280;49201;53.426;10.300;2023-02-15T06:52:01;102876.44;;;1.56;100.00
63111;BME280;49201;53.426;10.300;2023-02-15T06:54:27;102870.34;;;1.73;100.00
63111;BME280;49201;53.426;10.300;2023-02-15T06:56:52;102875.00;;;1.68;100.00
63111;BME280;49201;53.426;10.300;2023-02-15T06:59:17;102878.16;;;1.66;100.00
63111;BME280;49201;53.426;10.300;2023-02-15T07:01:43;102872.25;;;1.75;100.00
63111;BME280;49201;53.426;10.300;2023-02-15T07:04:09;102875.81;;;1.77;100.00
63111;BME280;49201;53.426;10.300;2023-02-15T07:06:34;102880.38;;;1.81;100.00
63111;BME280;49201;53.426;10.300;2023-02-15T07:09:00;102880.25;;;1.80;100.00
63111;BME280;49201;53.426;10.300;2023-02-15T07:11:26;102874.91;;;1.77;100.00
63111;BME280;49201;53.426;10.300;2023-02-15T07:14:09;102872.34;;;1.67;100.00
63111;BME280;49201;53.426;10.300;2023-02-15T07:16:35;102877.72;;;1.80;100.00
63111;BME280;49201;53.426;10.300;2023-02-15T07:19:01;102872.31;;;1.85;100.00
63111;BME280;49201;53.426;10.300;2023-02-15T07:21:27;102874.47;;;1.91;100.00
63111;BME280;49201;53.426;10.300;2023-02-15T07:23:55;102880.38;;;1.81;100.00
63111;BME280;49201;53.426;10.300;2023-02-15T07:26:21;102869.88;;;1.87;100.00
63111;BME280;49201;53.426;10.300;2023-02-15T07:28:46;102859.31;;;1.91;100.00
63111;BME280;49201;53.426;10.300;2023-02-15T07:31:12;102855.25;;;1.83;100.00
63111;BME280;49201;53.426;10.300;2023-02-15T07:33:37;102868.53;;;1.90;100.00
63111;BME280;49201;53.426;10.300;2023-02-15T07:36:04;102856.78;;;1.91;100.00
63111;BME280;49201;53.426;10.300;2023-02-15T07:38:32;102853.78;;;1.95;100.00
63111;BME280;49201;53.426;10.300;2023-02-15T07:40:59;102853.56;;;2.02;100.00
63111;BME280;49201;53.426;10.300;2023-02-15T07:43:25;102854.19;;;1.99;100.00
63111;BME280;49201;53.426;10.300;2023-02-15T07:45:50;102848.38;;;2.00;100.00
63111;BME280;49201;53.426;10.300;2023-02-15T07:48:16;102850.63;;;2.07;100.00
63111;BME280;49201;53.426;10.300;2023-02-15T07:50:41;102848.63;;;2.03;100.00
63111;BME280;49201;53.426;10.300;2023-02-15T07:53:07;102842.44;;;2.10;100.00
63111;BME280;49201;53.426;10.300;2023-02-15T07:55:32;102841.94;;;2.04;100.00
63111;BME280;49201;53.426;10.300;2023-02-15T07:57:57;102838.88;;;1.98;100.00
63111;BME280;49201;53.426;10.300;2023-02-15T08:00:23;102844.91;;;1.90;100.00
63111;BME280;49201;53.426;10.300;2023-02-15T08:02:51;102837.38;;;2.00;100.00
63111;BME280;49201;53.426;10.300;2023-02-15T08:05:35;102841.06;;;2.03;100.00
63111;BME280;49201;53.426;10.300;2023-02-15T08:08:00;102839.75;;;1.98;100.00
63111;BME280;49201;53.426;10.300;2023-02-15T08:10:26;102841.44;;;2.08;100.00
63111;BME280;49201;53.426;10.300;2023-02-15T08:13:11;102840.31;;;2.14;100.00
63111;BME280;49201;53.426;10.300;2023-02-15T08:15:37;102830.44;;;2.07;100.00
63111;BME280;49201;53.426;10.300;2023-02-15T08:18:02;102837.66;;;2.13;100.00
63111;BME280;49201;53.426;10.300;2023-02-15T08:20:28;102831.22;;;2.26;100.00
63111;BME280;49201;53.426;10.300;2023-02-15T08:22:53;102830.09;;;2.33;100.00
63111;BME280;49201;53.426;10.300;2023-02-15T08:25:19;102830.50;;;2.37;100.00
63111;BME280;49201;53.426;10.300;2023-02-15T08:27:44;102821.00;;;2.25;100.00
63111;BME280;49201;53.426;10.300;2023-02-15T08:30:10;102814.56;;;2.38;100.00
63111;BME280;49201;53.426;10.300;2023-02-15T08:32:36;102812.69;;;2.46;100.00
63111;BME280;49201;53.426;10.300;2023-02-15T08:35:02;102811.31;;;2.59;100.00
63111;BME280;49201;53.426;10.300;2023-02-15T08:37:27;102815.34;;;2.57;100.00
63111;BME280;49201;53.426;10.300;2023-02-15T08:39:52;102817.22;;;2.60;100.00
63111;BME280;49201;53.426;10.300;2023-02-15T08:42:18;102813.94;;;2.51;100.00
63111;BME280;49201;53.426;10.300;2023-02-15T08:44:45;102814.34;;;2.55;100.00
63111;BME280;49201;53.426;10.300;2023-02-15T08:47:11;102814.56;;;2.48;100.00
63111;BME280;49201;53.426;10.300;2023-02-15T08:49:37;102812.03;;;2.48;100.00
63111;BME280;49201;53.426;10.300;2023-02-15T08:52:02;102802.56;;;2.46;100.00
63111;BME280;49201;53.426;10.300;2023-02-15T08:54:28;102800.31;;;2.49;100.00
63111;BME280;49201;53.426;10.300;2023-02-15T08:56:53;102804.34;;;2.57;100.00
63111;BME280;49201;53.426;10.300;2023-02-15T08:59:21;102805.63;;;2.52;100.00
63111;BME280;49201;53.426;10.300;2023-02-15T09:01:49;102808.75;;;2.49;100.00
63111;BME280;49201;53.426;10.300;2023-02-15T09:04:15;102803.59;;;2.58;100.00
63111;BME280;49201;53.426;10.300;2023-02-15T09:06:41;102790.06;;;2.57;100.00
63111;BME280;49201;53.426;10.300;2023-02-15T09:09:08;102796.75;;;2.67;100.00
63111;BME280;49201;53.426;10.300;2023-02-15T09:11:36;102795.50;;;2.62;100.00
63111;BME280;49201;53.426;10.300;2023-02-15T09:14:05;102796.00;;;2.58;100.00
63111;BME280;49201;53.426;10.300;2023-02-15T09:16:33;102795.38;;;2.60;100.00
63111;BME280;49201;53.426;10.300;2023-02-15T09:18:59;102793.97;;;2.54;100.00
63111;BME280;49201;53.426;10.300;2023-02-15T09:21:27;102788.06;;;2.63;100.00
63111;BME280;49201;53.426;10.300;2023-02-15T09:23:56;102788.41;;;2.68;100.00
63111;BME280;49201;53.426;10.300;2023-02-15T09:26:23;102786.91;;;2.80;100.00
63111;BME280;49201;53.426;10.300;2023-02-15T09:28:53;102787.50;;;2.87;100.00
63111;BME280;49201;53.426;10.300;2023-02-15T09:31:22;102783.69;;;2.92;100.00
63111;BME280;49201;53.426;10.300;2023-02-15T09:33:48;102778.16;;;2.86;100.00
63111;BME280;49201;53.426;10.300;2023-02-15T09:36:26;102780.69;;;2.86;100.00
63111;BME280;49201;53.426;10.300;2023-02-15T09:39:14;102769.50;;;2.94;100.00
63111;BME280;49201;53.426;10.300;2023-02-15T10:03:01;102765.72;;;3.41;100.00
63111;BME280;49201;53.426;10.300;2023-02-15T10:08:37;102770.31;;;3.35;100.00
63111;BME280;49201;53.426;10.300;2023-02-15T10:11:17;102774.94;;;3.40;100.00
63111;BME280;49201;53.426;10.300;2023-02-15T10:14:15;102772.13;;;3.47;100.00
63111;BME280;49201;53.426;10.300;2023-02-15T10:19:27;102778.88;;;3.37;100.00
63111;BME280;49201;53.426;10.300;2023-02-15T10:27:48;102775.38;;;3.56;100.00
63111;BME280;49201;53.426;10.300;2023-02-15T10:30:27;102778.38;;;3.62;100.00
63111;BME280;49201;53.426;10.300;2023-02-15T10:38:25;102768.66;;;3.78;100.00
63111;BME280;49201;53.426;10.300;2023-02-15T10:44:26;102764.97;;;3.85;100.00
63111;BME280;49201;53.426;10.300;2023-02-15T10:47:09;102759.38;;;3.89;100.00
63111;BME280;49201;53.426;10.300;2023-02-15T10:52:29;102751.16;;;4.03;100.00
63111;BME280;49201;53.426;10.300;2023-02-15T10:55:08;102759.03;;;3.63;100.00
63111;BME280;49201;53.426;10.300;2023-02-15T10:57:55;102757.06;;;3.92;100.00
63111;BME280;49201;53.426;10.300;2023-02-15T11:03:40;102755.19;;;3.89;100.00
63111;BME280;49201;53.426;10.300;2023-02-15T11:06:11;102749.53;;;4.03;100.00
63111;BME280;49201;53.426;10.300;2023-02-15T11:09:09;102742.09;;;4.16;100.00
63111;BME280;49201;53.426;10.300;2023-02-15T11:13:48;102748.25;;;4.20;100.00
63111;BME280;49201;53.426;10.300;2023-02-15T11:16:32;102744.63;;;4.16;100.00
63111;BME280;49201;53.426;10.300;2023-02-15T11:18:59;102743.09;;;4.30;100.00
63111;BME280;49201;53.426;10.300;2023-02-15T11:21:37;102733.63;;;4.27;100.00
63111;BME280;49201;53.426;10.300;2023-02-15T11:24:16;102733.41;;;4.36;100.00
63111;BME280;49201;53.426;10.300;2023-02-15T11:26:51;102735.72;;;4.33;100.00
63111;BME280;49201;53.426;10.300;2023-02-15T11:29:25;102732.44;;;4.45;100.00
63111;BME280;49201;53.426;10.300;2023-02-15T11:31:56;102720.88;;;4.49;100.00
63111;BME280;49201;53.426;10.300;2023-02-15T11:34:44;102728.34;;;4.47;100.00
63111;BME280;49201;53.426;10.300;2023-02-15T11:37:16;102715.91;;;4.50;100.00
63111;BME280;49201;53.426;10.300;2023-02-15T11:39:43;102710.53;;;4.57;100.00
63111;BME280;49201;53.426;10.300;2023-02-15T11:42:13;102711.09;;;4.65;100.00
63111;BME280;49201;53.426;10.300;2023-02-15T11:47:13;102706.13;;;4.66;100.00
63111;BME280;49201;53.426;10.300;2023-02-15T11:49:39;102701.50;;;4.72;100.00
63111;BME280;49201;53.426;10.300;2023-02-15T11:52:10;102690.44;;;4.83;100.00
63111;BME280;49201;53.426;10.300;2023-02-15T11:54:41;102692.13;;;4.83;100.00
63111;BME280;49201;53.426;10.300;2023-02-15T11:57:19;102688.91;;;5.08;100.00
63111;BME280;49201;53.426;10.300;2023-02-15T12:00:03;102678.78;;;5.33;100.00
63111;BME280;49201;53.426;10.300;2023-02-15T12:02:35;102681.91;;;5.29;100.00
63111;BME280;49201;53.426;10.300;2023-02-15T12:05:10;102667.25;;;5.49;100.00
63111;BME280;49201;53.426;10.300;2023-02-15T12:07:43;102670.78;;;5.51;100.00
63111;BME280;49201;53.426;10.300;2023-02-15T12:10:17;102663.72;;;5.47;100.00
63111;BME280;49201;53.426;10.300;2023-02-15T12:12:45;102660.53;;;5.74;100.00
63111;BME280;49201;53.426;10.300;2023-02-15T12:15:12;102663.50;;;6.05;100.00
63111;BME280;49201;53.426;10.300;2023-02-15T12:17:41;102675.84;;;6.12;100.00
63111;BME280;49201;53.426;10.300;2023-02-15T12:20:24;102675.09;;;6.39;100.00
63111;BME280;49201;53.426;10.300;2023-02-15T12:22:53;102671.78;;;6.79;100.00
63111;BME280;49201;53.426;10.300;2023-02-15T12:25:23;102674.53;;;6.95;100.00
63111;BME280;49201;53.426;10.300;2023-02-15T12:27:51;102671.13;;;7.22;100.00
63111;BME280;49201;53.426;10.300;2023-02-15T12:30:25;102666.00;;;7.48;100.00
63111;BME280;49201;53.426;10.300;2023-02-15T12:36:03;102645.00;;;9.27;100.00
63111;BME280;49201;53.426;10.300;2023-02-15T12:38:29;102642.63;;;8.69;100.00
63111;BME280;49201;53.426;10.300;2023-02-15T12:40:59;102647.03;;;7.99;100.00
63111;BME280;49201;53.426;10.300;2023-02-15T12:43:35;102635.88;;;9.00;100.00
63111;BME280;49201;53.426;10.300;2023-02-15T12:46:23;102628.91;;;9.94;100.00
63111;BME280;49201;53.426;10.300;2023-02-15T12:51:55;102623.91;;;9.15;100.00
63111;BME280;49201;53.426;10.300;2023-02-15T12:56:50;102624.44;;;8.49;100.00
63111;BME280;49201;53.426;10.300;2023-02-15T12:59:21;102615.16;;;8.80;100.00
63111;BME280;49201;53.426;10.300;2023-02-15T13:01:47;102605.97;;;10.81;100.00
63111;BME280;49201;53.426;10.300;2023-02-15T13:04:29;102599.19;;;11.96;100.00
63111;BME280;49201;53.426;10.300;2023-02-15T13:06:58;102602.44;;;10.97;100.00
63111;BME280;49201;53.426;10.300;2023-02-15T13:11:57;102613.00;;;9.99;100.00
63111;BME280;49201;53.426;10.300;2023-02-15T13:14:34;102609.63;;;9.67;100.00
63111;BME280;49201;53.426;10.300;2023-02-15T13:17:02;102600.34;;;9.69;100.00
63111;BME280;49201;53.426;10.300;2023-02-15T13:19:44;102596.88;;;9.68;100.00
63111;BME280;49201;53.426;10.300;2023-02-15T13:22:38;102604.63;;;11.07;100.00
63111;BME280;49201;53.426;10.300;2023-02-15T13:27:40;102585.38;;;12.98;100.00
63111;BME280;49201;53.426;10.300;2023-02-15T13:30:22;102590.97;;;13.32;100.00
63111;BME280;49201;53.426;10.300;2023-02-15T13:32:50;102588.63;;;12.09;100.00
63111;BME280;49201;53.426;10.300;2023-02-15T13:35:18;102593.28;;;11.21;100.00
63111;BME280;49201;53.426;10.300;2023-02-15T13:38:31;102580.28;;;10.80;100.00
63111;BME280;49201;53.426;10.300;2023-02-15T13:41:08;102580.81;;;11.28;100.00
63111;BME280;49201;53.426;10.300;2023-02-15T13:43:56;102572.66;;;11.75;100.00
63111;BME280;49201;53.426;10.300;2023-02-15T14:03:31;102567.88;;;10.35;100.00
63111;BME280;49201;53.426;10.300;2023-02-15T14:06:03;102572.75;;;9.79;100.00
63111;BME280;49201;53.426;10.300;2023-02-15T14:24:38;102549.31;;;9.22;100.00
63111;BME280;49201;53.426;10.300;2023-02-15T14:29:55;102535.31;;;11.05;100.00
63111;BME280;49201;53.426;10.300;2023-02-15T14:32:38;102532.00;;;11.65;100.00
63111;BME280;49201;53.426;10.300;2023-02-15T14:35:17;102527.56;;;11.23;100.00
63111;BME280;49201;53.426;10.300;2023-02-15T14:40:57;102520.66;;;11.60;100.00
63111;BME280;49201;53.426;10.300;2023-02-15T14:46:18;102529.47;;;12.28;100.00
63111;BME280;49201;53.426;10.300;2023-02-15T14:48:48;102526.69;;;11.81;100.00
63111;BME280;49201;53.426;10.300;2023-02-15T14:54:06;102539.00;;;10.56;100.00
63111;BME280;49201;53.426;10.300;2023-02-15T14:56:32;102540.84;;;10.76;100.00
63111;BME280;49201;53.426;10.300;2023-02-15T14:59:00;102538.09;;;10.54;100.00
63111;BME280;49201;53.426;10.300;2023-02-15T15:01:35;102535.53;;;10.37;100.00
63111;BME280;49201;53.426;10.300;2023-02-15T15:04:07;102526.59;;;10.46;100.00
63111;BME280;49201;53.426;10.300;2023-02-15T15:06:36;102525.13;;;10.69;100.00
63111;BME280;49201;53.426;10.300;2023-02-15T15:09:41;102519.44;;;10.76;100.00
63111;BME280;49201;53.426;10.300;2023-02-15T15:14:49;102514.47;;;10.98;100.00
63111;BME280;49201;53.426;10.300;2023-02-15T15:20:12;102525.84;;;10.49;100.00
63111;BME280;49201;53.426;10.300;2023-02-15T15:22:40;102512.66;;;9.89;100.00
63111;BME280;49201;53.426;10.300;2023-02-15T15:25:10;102516.03;;;9.54;100.00